Terminal Aerodrome Forecast
Issued by NWS

Home | Current Version | Previous Version | Graphics & Text | Print | Product List | Glossary On
Versions: 1 2 3 4 5 6 7 8 9 10 11 12 13
153
FTUS43 KGRB 220525
TAFMTW
TAF
KMTW 220525Z 2206/2306 VRB03KT P6SM FEW100
     FM220900 33004KT P6SM SKC
     FM221200 03007KT P6SM SKC
     FM221900 12007KT P6SM SKC
     FM222300 19003KT P6SM SKC=

USA.gov is the U.S. government's official web portal to all federal, state and local government web resources and services.